Terminal Aerodrome Forecast
Issued by NWS

Home | Current Version | Previous Version | Text Only | Print | Product List | Glossary On
Versions: 1 2 3 4 5 6 7 8 9 10 11 12 13 14 15 16
000
FTUS45 KRIW 300500
TAFBPI
TAF
KBPI 300539Z 3006/3106 VRB04KT P6SM SCT110 OVC200
     FM301000 36005KT P6SM VCFG BKN090
     FM301700 VRB05KT P6SM SCT090 BKN200
     FM310100 VRB05KT P6SM SCT040 BKN070=

USA.gov is the U.S. government's official web portal to all federal, state and local government web resources and services.